Time;durP1;ratioP1;P1;durP2;ratioP2;P2;SDS_P1;SDS_P2;PMS_P1;PMS_P2;Temp;Humidity;BMP_temperature;BMP_pressure;BME280_temperature;BME280_humidity;BME280_pressure;Samples;Min_cycle;Max_cycle;Signal;HPM_P1;HPM_P2
2021/09/18 00:02:06;;;;;;;6.68;6.03;;;16.20;74.20;;;;;;4987692;28;20036;-81
2021/09/18 00:04:32;;;;;;;6.30;5.70;;;16.20;74.20;;;;;;4985346;28;20042;-81
2021/09/18 00:06:58;;;;;;;6.65;5.93;;;16.20;74.30;;;;;;4990773;28;20030;-82
2021/09/18 00:09:24;;;;;;;6.78;6.18;;;16.20;74.30;;;;;;4974574;28;20426;-81
2021/09/18 00:11:50;;;;;;;8.45;6.88;;;16.20;74.30;;;;;;4990527;28;20061;-82
2021/09/18 00:14:20;;;;;;;6.63;6.03;;;16.20;74.40;;;;;;5008412;28;20041;-82
2021/09/18 00:16:47;;;;;;;6.97;5.70;;;16.20;74.40;;;;;;4990262;28;20040;-82
2021/09/18 00:19:13;;;;;;;7.90;6.13;;;16.10;74.20;;;;;;4981354;28;20093;-82
2021/09/18 00:21:39;;;;;;;6.30;5.70;;;16.10;74.80;;;;;;4991036;28;20037;-81
2021/09/18 00:24:05;;;;;;;6.40;5.80;;;16.10;74.30;;;;;;5014396;28;20410;-81
2021/09/18 00:26:35;;;;;;;6.75;6.03;;;16.10;74.40;;;;;;5010083;28;20120;-81
2021/09/18 00:29:02;;;;;;;6.72;5.93;;;16.10;74.40;;;;;;4991336;28;20048;-81
2021/09/18 00:31:28;;;;;;;6.85;6.15;;;16.00;74.30;;;;;;4991423;28;20069;-82
2021/09/18 00:33:54;;;;;;;6.13;5.63;;;16.00;74.40;;;;;;4974231;28;20045;-82
2021/09/18 00:36:20;;;;;;;6.30;5.70;;;16.00;74.40;;;;;;4990782;28;20507;-81
2021/09/18 00:38:47;;;;;;;6.88;6.28;;;16.00;74.60;;;;;;5008219;28;20470;-82
2021/09/18 00:41:13;;;;;;;6.22;5.63;;;16.00;74.60;;;;;;4990120;28;20037;-81
2021/09/18 00:43:39;;;;;;;6.15;5.55;;;15.90;74.50;;;;;;4983544;28;20077;-81
2021/09/18 00:46:05;;;;;;;6.05;5.55;;;16.00;74.70;;;;;;4988423;28;20053;-81
2021/09/18 00:48:31;;;;;;;6.38;5.80;;;15.90;74.60;;;;;;4984599;28;20026;-82
2021/09/18 00:50:57;;;;;;;6.28;5.68;;;16.00;74.80;;;;;;4989914;28;20060;-82
2021/09/18 00:53:24;;;;;;;6.18;5.68;;;15.90;74.70;;;;;;4968924;28;20030;-81
2021/09/18 00:55:50;;;;;;;6.10;5.25;;;15.90;74.70;;;;;;4986919;28;20100;-82
2021/09/18 00:58:16;;;;;;;5.57;5.07;;;15.90;74.70;;;;;;4970757;28;20586;-82
2021/09/18 01:00:42;;;;;;;6.70;6.03;;;15.90;74.70;;;;;;4970556;28;20053;-80
2021/09/18 01:03:08;;;;;;;5.22;4.82;;;15.80;74.60;;;;;;4970084;28;20045;-80
2021/09/18 01:05:36;;;;;;;6.43;5.50;;;15.80;74.60;;;;;;4970621;28;20069;-81
2021/09/18 01:08:03;;;;;;;5.85;5.35;;;15.80;74.70;;;;;;4988759;28;20523;-81
2021/09/18 01:10:29;;;;;;;6.22;5.43;;;15.80;74.70;;;;;;4989289;28;20045;-81
2021/09/18 01:13:09;;;;;;;6.68;6.05;;;15.80;74.70;;;;;;4988823;28;20534;-81
2021/09/18 01:15:37;;;;;;;5.97;5.43;;;15.80;74.80;;;;;;4989580;28;20045;-80
2021/09/18 01:18:05;;;;;;;6.00;5.40;;;15.70;74.60;;;;;;4994934;28;20085;-80
2021/09/18 01:20:32;;;;;;;5.60;5.10;;;15.70;74.70;;;;;;4985955;28;20512;-81
2021/09/18 01:23:00;;;;;;;6.85;5.85;;;15.70;74.70;;;;;;4969301;28;20034;-82
2021/09/18 01:25:31;;;;;;;5.63;5.13;;;15.70;74.80;;;;;;4970526;28;20109;-81
2021/09/18 01:27:57;;;;;;;6.93;5.57;;;15.70;74.90;;;;;;4953425;28;20228;-82
2021/09/18 01:30:27;;;;;;;5.85;5.35;;;15.60;74.80;;;;;;4988932;28;20394;-82
2021/09/18 01:32:53;;;;;;;5.45;4.95;;;15.60;74.80;;;;;;4985059;28;20027;-83
2021/09/18 01:35:19;;;;;;;5.68;5.15;;;15.60;74.90;;;;;;4986570;28;20046;-82
2021/09/18 01:37:47;;;;;;;6.07;5.47;;;15.60;75.00;;;;;;4990933;28;20031;-82
2021/09/18 01:40:22;;;;;;;6.45;5.85;;;15.60;75.00;;;;;;5005239;28;20474;-82
2021/09/18 01:42:48;;;;;;;6.85;6.10;;;15.60;75.10;;;;;;4974030;28;20149;-81
2021/09/18 01:45:16;;;;;;;6.85;6.22;;;15.60;75.10;;;;;;4989861;28;20029;-82
2021/09/18 01:47:48;;;;;;;7.53;6.50;;;15.60;75.10;;;;;;5004160;28;20118;-83
2021/09/18 01:50:29;;;;;;;6.60;5.95;;;15.60;75.20;;;;;;4993353;28;20067;-82
2021/09/18 01:53:01;;;;;;;7.07;6.47;;;15.60;75.70;;;;;;5010683;28;20088;-82
2021/09/18 01:55:28;;;;;;;8.50;6.53;;;15.60;75.10;;;;;;5010679;28;20026;-83
2021/09/18 01:57:56;;;;;;;7.28;5.97;;;15.60;75.10;;;;;;4989730;28;20049;-83
2021/09/18 02:00:22;;;;;;;6.57;5.97;;;15.60;75.20;;;;;;4992656;28;20354;-83
2021/09/18 02:02:50;;;;;;;6.35;5.75;;;15.60;75.20;;;;;;4992942;28;20129;-84
2021/09/18 02:05:18;;;;;;;6.13;5.53;;;15.50;75.10;;;;;;5010403;28;20034;-82
2021/09/18 02:07:44;;;;;;;6.38;5.78;;;15.50;75.10;;;;;;4976627;28;20610;-83
2021/09/18 02:10:14;;;;;;;6.40;5.80;;;15.50;75.20;;;;;;4992854;28;20050;-83
2021/09/18 02:12:41;;;;;;;6.18;5.68;;;15.50;75.20;;;;;;5009234;28;20120;-83
2021/09/18 02:15:08;;;;;;;7.00;5.65;;;15.50;75.20;;;;;;5010614;28;20033;-83
2021/09/18 02:17:34;;;;;;;7.38;6.68;;;15.50;75.30;;;;;;4992797;28;20080;-83
2021/09/18 02:20:00;;;;;;;7.60;6.90;;;15.60;75.50;;;;;;4977543;28;20026;-83
2021/09/18 02:22:26;;;;;;;6.93;6.32;;;15.50;75.30;;;;;;5009104;28;20085;-84
2021/09/18 02:24:52;;;;;;;7.15;6.38;;;15.60;75.50;;;;;;4976863;28;20125;-84
2021/09/18 02:27:18;;;;;;;6.72;6.13;;;15.60;75.60;;;;;;4993116;28;20041;-84
2021/09/18 02:29:44;;;;;;;7.13;6.40;;;15.60;75.50;;;;;;4998676;28;20026;-82
2021/09/18 02:32:10;;;;;;;7.97;7.28;;;15.60;75.60;;;;;;5016564;28;20030;-82
2021/09/18 02:34:36;;;;;;;7.55;6.75;;;15.50;75.40;;;;;;5032839;28;20313;-81
2021/09/18 02:37:02;;;;;;;6.38;5.65;;;15.50;75.40;;;;;;5023580;28;20296;-81
2021/09/18 02:39:28;;;;;;;6.57;5.90;;;15.50;75.40;;;;;;5000803;28;20053;-82
2021/09/18 02:41:54;;;;;;;6.82;6.03;;;15.50;75.50;;;;;;5013519;28;20489;-82
2021/09/18 02:44:20;;;;;;;6.85;6.15;;;15.50;75.50;;;;;;4979999;28;20058;-81
2021/09/18 02:46:46;;;;;;;6.57;5.97;;;15.50;75.50;;;;;;4978545;28;20053;-82
2021/09/18 02:49:12;;;;;;;6.10;5.50;;;15.50;75.50;;;;;;4977725;28;20126;-83
2021/09/18 02:51:38;;;;;;;7.13;6.43;;;15.50;75.50;;;;;;4993354;28;20533;-82
2021/09/18 02:54:06;;;;;;;6.72;6.07;;;15.50;75.50;;;;;;4993807;28;20385;-83
2021/09/18 02:56:32;;;;;;;6.68;6.07;;;15.50;75.60;;;;;;4993440;28;20224;-82
2021/09/18 02:58:58;;;;;;;6.43;5.82;;;15.50;75.60;;;;;;4977450;28;20523;-82
2021/09/18 03:01:24;;;;;;;7.03;6.40;;;15.50;75.60;;;;;;5012191;28;20030;-82
2021/09/18 03:03:50;;;;;;;7.03;6.43;;;15.50;75.60;;;;;;4976618;28;20440;-82
2021/09/18 03:06:16;;;;;;;7.18;6.47;;;15.40;75.50;;;;;;5011859;28;20103;-82
2021/09/18 03:08:42;;;;;;;6.90;6.20;;;15.50;75.70;;;;;;5013654;28;20344;-81
2021/09/18 03:11:08;;;;;;;6.97;6.30;;;15.40;75.50;;;;;;4996257;28;20125;-82
2021/09/18 03:13:35;;;;;;;7.00;5.82;;;15.40;75.50;;;;;;5014326;28;20461;-82
2021/09/18 03:16:06;;;;;;;6.60;6.10;;;15.40;75.50;;;;;;4996768;28;20026;-82
2021/09/18 03:18:32;;;;;;;5.85;5.25;;;15.40;75.50;;;;;;4992914;28;20482;-83
2021/09/18 03:20:58;;;;;;;6.75;6.15;;;15.40;75.50;;;;;;5000270;28;20026;-83
2021/09/18 03:23:24;;;;;;;6.95;6.22;;;15.40;75.60;;;;;;5013866;28;20044;-83
2021/09/18 03:25:50;;;;;;;6.40;5.65;;;15.30;75.40;;;;;;5014026;28;20115;-81
2021/09/18 03:28:16;;;;;;;6.90;6.05;;;15.30;75.50;;;;;;5012204;28;20033;-83
2021/09/18 03:30:42;;;;;;;6.18;5.57;;;15.30;75.50;;;;;;4995871;28;20041;-83
2021/09/18 03:33:08;;;;;;;6.13;5.45;;;15.30;75.50;;;;;;4979853;28;20453;-83
2021/09/18 03:35:35;;;;;;;6.35;5.75;;;15.20;75.40;;;;;;4995811;28;20049;-82
2021/09/18 03:38:01;;;;;;;6.60;6.00;;;15.20;75.50;;;;;;4995883;28;20036;-83
2021/09/18 03:40:27;;;;;;;6.68;6.07;;;15.20;75.50;;;;;;5013134;28;20030;-82
2021/09/18 03:42:53;;;;;;;8.35;6.68;;;15.20;75.50;;;;;;5013141;28;20512;-83
2021/09/18 03:45:19;;;;;;;6.25;5.57;;;15.20;75.50;;;;;;5013328;28;20025;-82
2021/09/18 03:47:45;;;;;;;6.22;5.63;;;15.20;75.60;;;;;;5013097;28;20050;-82
2021/09/18 03:50:11;;;;;;;6.47;5.88;;;15.20;75.60;;;;;;4994935;28;20059;-83
2021/09/18 03:52:37;;;;;;;6.22;5.57;;;15.10;75.40;;;;;;4979330;28;20037;-83
2021/09/18 03:55:05;;;;;;;7.05;6.35;;;15.10;75.50;;;;;;5011401;28;20026;-82
2021/09/18 03:57:30;;;;;;;6.47;5.70;;;15.10;75.50;;;;;;5013183;28;20034;-83
2021/09/18 03:59:56;;;;;;;6.10;5.60;;;15.10;75.60;;;;;;5011639;28;20030;-83
2021/09/18 04:02:22;;;;;;;6.45;5.00;;;15.00;75.40;;;;;;4995046;28;20451;-83
2021/09/18 04:04:49;;;;;;;6.20;5.60;;;15.00;75.50;;;;;;5011628;28;20343;-83
2021/09/18 04:07:15;;;;;;;6.20;5.60;;;15.00;75.50;;;;;;4995345;28;20335;-82
2021/09/18 04:09:41;;;;;;;5.95;5.38;;;15.00;75.60;;;;;;5011422;28;20446;-82
2021/09/18 04:12:06;;;;;;;6.90;6.20;;;15.00;75.70;;;;;;5012839;28;20137;-83
2021/09/18 04:14:33;;;;;;;6.28;5.68;;;15.00;75.70;;;;;;4995063;28;20122;-82
2021/09/18 04:16:59;;;;;;;6.50;5.85;;;14.90;75.60;;;;;;4976096;28;20033;-83
2021/09/18 04:19:25;;;;;;;6.20;5.68;;;15.00;75.90;;;;;;4958707;28;20030;-83
2021/09/18 04:21:51;;;;;;;7.00;6.30;;;15.00;75.90;;;;;;4975075;28;20053;-83
2021/09/18 04:24:17;;;;;;;7.68;6.38;;;15.00;76.00;;;;;;4982506;28;20065;-83
2021/09/18 04:26:43;;;;;;;6.40;5.80;;;15.00;76.00;;;;;;4988654;28;20026;-83
2021/09/18 04:29:09;;;;;;;6.70;6.00;;;15.00;76.00;;;;;;5002293;28;20034;-82
2021/09/18 04:31:35;;;;;;;7.35;6.00;;;14.90;75.80;;;;;;4975675;28;20133;-83
2021/09/18 04:34:01;;;;;;;7.75;6.68;;;15.00;76.10;;;;;;4975604;28;20113;-82
2021/09/18 04:36:27;;;;;;;6.38;5.78;;;15.00;76.10;;;;;;4974941;28;20126;-84
2021/09/18 04:38:53;;;;;;;7.88;6.75;;;15.00;76.10;;;;;;4959268;28;20173;-83
2021/09/18 04:41:20;;;;;;;7.55;6.78;;;15.00;76.10;;;;;;4991551;28;20117;-83
2021/09/18 04:43:46;;;;;;;7.97;6.82;;;15.00;76.20;;;;;;4991068;28;20027;-84
2021/09/18 04:46:12;;;;;;;6.90;6.28;;;15.00;76.10;;;;;;4974766;28;20521;-84
2021/09/18 04:48:38;;;;;;;7.05;6.35;;;15.00;76.20;;;;;;4987041;28;20449;-83
2021/09/18 04:51:04;;;;;;;7.18;6.40;;;15.00;76.40;;;;;;4991497;28;20103;-83
2021/09/18 04:53:30;;;;;;;6.88;6.25;;;15.00;76.10;;;;;;4975938;28;20030;-82
2021/09/18 04:55:57;;;;;;;8.55;7.25;;;15.00;76.10;;;;;;5009392;28;20035;-83
2021/09/18 04:58:23;;;;;;;7.10;6.40;;;15.10;76.20;;;;;;4982793;28;20037;-83
2021/09/18 05:00:49;;;;;;;7.78;6.68;;;15.10;76.20;;;;;;4989547;28;20022;-82
2021/09/18 05:03:15;;;;;;;7.03;6.15;;;15.00;76.00;;;;;;4971549;28;20034;-83
2021/09/18 05:05:41;;;;;;;7.07;6.38;;;15.00;76.00;;;;;;4998272;28;20455;-82
2021/09/18 05:08:07;;;;;;;7.93;7.22;;;15.00;76.00;;;;;;4983025;28;20037;-82
2021/09/18 05:10:33;;;;;;;7.65;6.70;;;15.00;76.00;;;;;;5005548;28;20057;-83
2021/09/18 05:12:59;;;;;;;8.57;7.68;;;15.00;76.10;;;;;;4990227;28;20034;-84
2021/09/18 05:15:25;;;;;;;8.82;7.97;;;14.90;76.00;;;;;;4990350;28;20044;-82
2021/09/18 05:17:51;;;;;;;7.50;6.72;;;14.90;76.00;;;;;;5002840;28;20133;-82
2021/09/18 05:20:17;;;;;;;7.25;6.63;;;14.90;76.10;;;;;;4970800;28;20129;-82
2021/09/18 05:22:43;;;;;;;8.80;8.00;;;14.90;76.10;;;;;;4980712;28;20054;-82
2021/09/18 05:25:09;;;;;;;8.23;7.43;;;14.90;76.20;;;;;;4964280;28;20093;-82
2021/09/18 05:27:35;;;;;;;8.05;6.95;;;14.90;76.20;;;;;;4996828;28;20030;-84
2021/09/18 05:30:03;;;;;;;8.30;7.50;;;14.90;76.20;;;;;;4986454;28;20124;-82
2021/09/18 05:32:29;;;;;;;7.28;6.57;;;14.90;76.30;;;;;;4987476;28;20038;-83
2021/09/18 05:34:55;;;;;;;8.68;7.78;;;15.00;76.50;;;;;;4986706;28;20018;-83
2021/09/18 05:37:22;;;;;;;8.18;6.95;;;15.00;76.50;;;;;;5002207;28;20019;-84
2021/09/18 05:39:47;;;;;;;7.82;7.07;;;15.00;76.50;;;;;;5014001;28;20488;-84
2021/09/18 05:42:14;;;;;;;8.27;7.47;;;15.10;76.70;;;;;;5007156;28;20552;-82
2021/09/18 05:44:40;;;;;;;7.72;6.82;;;15.00;76.50;;;;;;4978861;28;20034;-83
2021/09/18 05:47:07;;;;;;;8.63;7.72;;;15.00;76.50;;;;;;4978638;28;20053;-83
2021/09/18 05:49:34;;;;;;;8.65;7.72;;;15.00;76.50;;;;;;4985913;28;20023;-81
2021/09/18 05:52:00;;;;;;;9.70;8.80;;;15.10;76.70;;;;;;4970797;28;20160;-82
2021/09/18 05:54:29;;;;;;;9.27;7.97;;;15.10;76.70;;;;;;4987964;28;20030;-82
2021/09/18 05:56:55;;;;;;;9.10;8.20;;;15.10;76.70;;;;;;4992911;28;20030;-83
2021/09/18 05:59:22;;;;;;;8.68;7.78;;;15.10;76.70;;;;;;4970041;28;20231;-82
2021/09/18 06:01:48;;;;;;;9.52;8.60;;;15.10;76.70;;;;;;4989296;28;20034;-82
2021/09/18 06:04:14;;;;;;;10.18;9.18;;;15.10;76.70;;;;;;4957552;28;20039;-82
2021/09/18 06:06:40;;;;;;;9.30;8.38;;;15.10;76.70;;;;;;5006931;28;20064;-84
2021/09/18 06:09:06;;;;;;;9.93;8.90;;;15.20;76.90;;;;;;4991779;28;20087;-84
2021/09/18 06:11:32;;;;;;;10.38;9.20;;;15.20;76.90;;;;;;4994854;28;20143;-78
2021/09/18 06:13:58;;;;;;;10.57;9.48;;;15.20;76.80;;;;;;4982883;28;20030;-83
2021/09/18 06:16:24;;;;;;;12.20;9.70;;;15.20;76.80;;;;;;4986890;28;20034;-85
2021/09/18 06:18:51;;;;;;;10.95;9.85;;;15.30;77.00;;;;;;4968239;28;20026;-85
2021/09/18 06:21:18;;;;;;;10.15;8.80;;;15.30;77.00;;;;;;4963483;28;20032;-82
2021/09/18 06:23:45;;;;;;;11.10;8.10;;;15.40;77.10;;;;;;4997821;28;20030;-89
2021/09/18 06:26:11;;;;;;;9.90;8.98;;;15.40;77.10;;;;;;4985691;28;20037;-85
2021/09/18 06:28:38;;;;;;;10.18;8.98;;;15.40;77.00;;;;;;4976822;28;20034;-85
2021/09/18 06:31:04;;;;;;;10.23;9.18;;;15.50;77.10;;;;;;4971997;28;20544;-83
2021/09/18 06:33:30;;;;;;;9.80;8.82;;;15.50;77.00;;;;;;4988863;28;20085;-87
2021/09/18 06:35:56;;;;;;;10.82;9.68;;;15.50;76.90;;;;;;4989388;28;20034;-82
2021/09/18 06:38:22;;;;;;;14.05;10.90;;;15.60;77.10;;;;;;4996813;28;20110;-84
2021/09/18 06:40:52;;;;;;;10.85;9.75;;;15.70;77.30;;;;;;4995641;28;20489;-85
2021/09/18 06:43:19;;;;;;;11.35;9.75;;;15.70;77.30;;;;;;4978053;28;20026;-82
2021/09/18 06:45:46;;;;;;;12.73;10.55;;;15.80;77.40;;;;;;5000032;28;20154;-83
2021/09/18 06:48:12;;;;;;;11.95;10.00;;;15.90;77.40;;;;;;4994163;28;20050;-85
2021/09/18 06:50:39;;;;;;;11.13;9.68;;;16.00;77.50;;;;;;4974566;28;20037;-83
2021/09/18 06:53:06;;;;;;;10.98;9.68;;;16.00;77.40;;;;;;4985043;28;20041;-82
2021/09/18 06:55:32;;;;;;;10.65;9.13;;;16.10;77.50;;;;;;4997867;28;20030;-80
2021/09/18 06:58:00;;;;;;;11.63;10.35;;;16.10;77.30;;;;;;4997418;28;20033;-82
2021/09/18 07:00:30;;;;;;;11.52;10.15;;;16.20;77.50;;;;;;4997740;28;20030;-83
2021/09/18 07:02:56;;;;;;;10.63;9.10;;;16.30;77.50;;;;;;4963813;28;20034;-84
2021/09/18 07:05:23;;;;;;;12.88;11.50;;;16.30;77.40;;;;;;4979079;28;20137;-83
2021/09/18 07:07:49;;;;;;;10.70;9.52;;;16.40;77.50;;;;;;4998864;28;20033;-84
2021/09/18 07:10:16;;;;;;;11.15;10.05;;;16.40;77.40;;;;;;4999235;28;20022;-83
2021/09/18 07:12:43;;;;;;;12.10;10.82;;;16.40;77.30;;;;;;4980721;28;20037;-83
2021/09/18 07:15:10;;;;;;;11.90;10.30;;;16.50;77.40;;;;;;4998347;28;20112;-83
2021/09/18 07:17:36;;;;;;;11.60;10.43;;;16.50;77.30;;;;;;4963650;28;20041;-83
2021/09/18 07:20:03;;;;;;;11.30;9.90;;;16.50;77.30;;;;;;4981895;28;20026;-80
2021/09/18 07:22:29;;;;;;;12.65;10.95;;;16.50;77.30;;;;;;4984383;28;20109;-82
2021/09/18 07:24:56;;;;;;;11.32;10.13;;;16.60;77.40;;;;;;4997788;28;20516;-82
2021/09/18 07:27:22;;;;;;;11.93;10.65;;;16.50;77.20;;;;;;4975333;28;20041;-80
2021/09/18 07:29:51;;;;;;;12.60;10.73;;;16.60;77.30;;;;;;4996576;28;20493;-82
2021/09/18 07:32:19;;;;;;;11.35;10.15;;;16.60;77.20;;;;;;4966525;28;20524;-81
2021/09/18 07:34:46;;;;;;;11.18;9.98;;;16.70;77.40;;;;;;4981857;28;20056;-82
2021/09/18 07:37:13;;;;;;;11.25;9.73;;;16.70;77.40;;;;;;4985782;28;20037;-83
2021/09/18 07:39:42;;;;;;;11.35;10.07;;;16.70;77.30;;;;;;4986476;28;20121;-82
2021/09/18 07:42:08;;;;;;;13.32;11.25;;;16.80;77.40;;;;;;4989413;28;20033;-82
2021/09/18 07:44:35;;;;;;;11.38;10.25;;;16.90;77.40;;;;;;4998154;28;20144;-83
2021/09/18 07:47:01;;;;;;;12.02;10.07;;;17.00;77.50;;;;;;4996811;28;20050;-82
2021/09/18 07:49:27;;;;;;;11.95;10.40;;;17.00;77.30;;;;;;4981782;28;20034;-82
2021/09/18 07:51:55;;;;;;;11.93;10.63;;;17.10;77.40;;;;;;4997672;28;20037;-82
2021/09/18 07:54:22;;;;;;;12.25;10.23;;;17.20;77.50;;;;;;4999013;28;20022;-82
2021/09/18 07:56:48;;;;;;;11.32;9.98;;;17.20;77.30;;;;;;4989944;28;20053;-83
2021/09/18 07:59:14;;;;;;;10.82;9.38;;;17.30;77.40;;;;;;4998827;28;20028;-82
2021/09/18 08:01:40;;;;;;;13.70;10.40;;;17.40;77.40;;;;;;4979700;28;20048;-81
2021/09/18 08:04:06;;;;;;;11.10;9.90;;;17.50;77.40;;;;;;4999507;28;20026;-82
2021/09/18 08:06:34;;;;;;;12.25;10.50;;;17.70;77.50;;;;;;4999362;28;20267;-82
2021/09/18 08:09:05;;;;;;;12.93;11.10;;;17.80;77.50;;;;;;4998097;28;20574;-81
2021/09/18 08:11:33;;;;;;;11.93;10.25;;;17.80;77.30;;;;;;4998666;28;20038;-82
2021/09/18 08:14:02;;;;;;;11.35;10.15;;;17.90;77.30;;;;;;4999814;28;20030;-81
2021/09/18 08:16:28;;;;;;;15.05;12.27;;;17.90;77.20;;;;;;4984503;28;20034;-82
2021/09/18 08:18:55;;;;;;;14.25;11.55;;;18.00;77.30;;;;;;5005511;28;20393;-82
2021/09/18 08:21:21;;;;;;;13.50;10.95;;;18.00;77.20;;;;;;5011449;28;20072;-81
2021/09/18 08:23:47;;;;;;;14.93;12.20;;;18.00;77.10;;;;;;5019015;28;20048;-82
2021/09/18 08:26:13;;;;;;;12.85;11.52;;;18.00;77.00;;;;;;5001875;28;20030;-82
2021/09/18 08:28:41;;;;;;;13.20;11.65;;;18.10;77.10;;;;;;5014352;28;20088;-82
2021/09/18 08:31:07;;;;;;;13.43;12.00;;;18.10;77.10;;;;;;4990950;28;20091;-81
2021/09/18 08:33:33;;;;;;;17.85;15.95;;;18.20;77.20;;;;;;5007142;28;20103;-83
2021/09/18 08:35:59;;;;;;;26.73;21.63;;;18.20;77.10;;;;;;5007636;28;20115;-82
2021/09/18 08:38:26;;;;;;;28.25;22.55;;;18.30;77.20;;;;;;5009839;28;20038;-81
2021/09/18 08:40:54;;;;;;;28.95;23.70;;;18.40;77.10;;;;;;5009327;28;20033;-82
2021/09/18 08:43:20;;;;;;;27.65;22.08;;;18.50;77.10;;;;;;4980476;28;20445;-82
2021/09/18 08:45:47;;;;;;;27.70;23.10;;;18.70;77.30;;;;;;5002581;28;20018;-82
2021/09/18 08:48:16;;;;;;;29.75;25.50;;;18.70;77.10;;;;;;5006757;28;20041;-81
2021/09/18 08:50:43;;;;;;;31.80;25.67;;;18.80;77.00;;;;;;5009189;28;20084;-80
2021/09/18 08:53:09;;;;;;;31.35;26.15;;;18.90;77.00;;;;;;4985839;28;20045;-80
2021/09/18 08:55:35;;;;;;;31.10;25.77;;;19.00;76.90;;;;;;4999135;28;20458;-81
2021/09/18 08:58:02;;;;;;;36.03;27.52;;;19.00;76.80;;;;;;4991774;28;20038;-81
2021/09/18 09:00:34;;;;;;;31.95;25.85;;;19.00;76.60;;;;;;4974905;28;20049;-80
2021/09/18 09:03:06;;;;;;;34.50;27.88;;;19.00;76.40;;;;;;5008726;28;20032;-81
2021/09/18 09:05:38;;;;;;;35.90;27.27;;;19.00;76.90;;;;;;5006794;28;20049;-80
2021/09/18 09:08:13;;;;;;;36.03;27.77;;;18.90;76.20;;;;;;4989485;28;20041;-82
2021/09/18 09:10:44;;;;;;;35.13;26.42;;;18.90;76.20;;;;;;4990085;28;20037;-81
2021/09/18 09:13:13;;;;;;;33.17;27.23;;;18.80;76.10;;;;;;4989730;28;20060;-81
2021/09/18 09:15:43;;;;;;;35.95;28.00;;;18.80;76.70;;;;;;5006037;28;20338;-81
2021/09/18 09:18:22;;;;;;;35.13;27.50;;;18.70;76.30;;;;;;4999270;28;20026;-80
2021/09/18 09:21:07;;;;;;;34.15;27.48;;;18.70;76.10;;;;;;4986252;28;20537;-81
2021/09/18 09:23:33;;;;;;;36.63;26.83;;;18.70;76.20;;;;;;4970073;28;20065;-82
2021/09/18 09:26:00;;;;;;;36.55;27.48;;;18.70;76.30;;;;;;4987436;28;20034;-81
2021/09/18 09:28:32;;;;;;;41.35;29.20;;;18.70;76.30;;;;;;4987181;28;20049;-82
2021/09/18 09:31:26;;;;;;;38.60;28.98;;;18.70;76.40;;;;;;4986176;28;20034;-81
2021/09/18 09:34:05;;;;;;;37.35;28.75;;;18.80;76.60;;;;;;4985381;28;20218;-81
2021/09/18 09:36:37;;;;;;;40.88;29.02;;;18.70;76.40;;;;;;4969207;28;20475;-80
2021/09/18 09:39:05;;;;;;;34.50;27.75;;;18.70;76.40;;;;;;4980379;28;20031;-79
2021/09/18 09:41:46;;;;;;;40.55;28.23;;;18.70;76.50;;;;;;4978023;28;20030;-80
2021/09/18 09:44:15;;;;;;;35.85;26.70;;;18.70;76.90;;;;;;4994250;28;21075;-80
2021/09/18 09:46:42;;;;;;;35.65;27.17;;;18.90;77.30;;;;;;4990198;28;20045;-81
2021/09/18 09:49:14;;;;;;;35.08;26.60;;;18.90;77.30;;;;;;4997390;28;20587;-80
2021/09/18 09:51:42;;;;;;;35.55;26.98;;;19.00;77.50;;;;;;4983170;28;20045;-80
2021/09/18 09:54:25;;;;;;;32.65;24.77;;;19.00;77.50;;;;;;5004006;28;20108;-79
2021/09/18 09:57:13;;;;;;;32.45;24.75;;;19.10;77.70;;;;;;4994313;28;20122;-80
2021/09/18 09:59:41;;;;;;;34.90;26.58;;;19.20;77.80;;;;;;4991430;28;21224;-80
2021/09/18 10:02:09;;;;;;;34.15;26.13;;;19.30;77.80;;;;;;4967205;28;20443;-79
2021/09/18 10:04:36;;;;;;;33.80;27.48;;;19.40;78.00;;;;;;4984678;28;20034;-80
2021/09/18 10:07:03;;;;;;;40.25;28.35;;;19.40;77.90;;;;;;4968786;28;20054;-81
2021/09/18 10:09:29;;;;;;;36.65;26.50;;;19.50;78.00;;;;;;4986901;28;20045;-82
2021/09/18 10:11:57;;;;;;;32.58;25.52;;;19.60;78.10;;;;;;4985559;28;20038;-81
2021/09/18 10:14:27;;;;;;;34.15;26.08;;;19.70;78.70;;;;;;4987401;28;20070;-80
2021/09/18 10:16:57;;;;;;;;;;;19.70;78.10;;;;;;4989802;28;20626;-80
2021/09/18 10:24:56;;;;;;;30.63;24.35;;;20.00;78.00;;;;;;5009031;28;20033;-80
2021/09/18 10:27:26;;;;;;;33.58;24.35;;;20.00;77.80;;;;;;4991218;28;20143;-80
2021/09/18 10:29:53;;;;;;;29.42;22.30;;;20.10;77.90;;;;;;4990022;28;20026;-80
2021/09/18 10:32:21;;;;;;;32.35;25.17;;;20.10;77.70;;;;;;4989773;28;20038;-80
2021/09/18 10:34:47;;;;;;;30.42;23.10;;;20.20;77.80;;;;;;4989287;28;20026;-81
2021/09/18 10:37:35;;;;;;;29.40;23.67;;;20.20;77.60;;;;;;4989064;28;20037;-80
2021/09/18 10:40:11;;;;;;;29.73;22.77;;;20.30;77.60;;;;;;4975035;28;20025;-80
2021/09/18 10:42:45;;;;;;;29.33;23.13;;;20.30;77.40;;;;;;4989986;28;20093;-81
2021/09/18 10:45:15;;;;;;;29.52;23.10;;;20.40;77.40;;;;;;4991825;28;20041;-79
2021/09/18 10:48:00;;;;;;;27.23;22.08;;;20.40;77.20;;;;;;4986309;28;20046;-77
2021/09/18 10:50:26;;;;;;;26.02;21.85;;;20.50;77.20;;;;;;4970757;28;20093;-79
2021/09/18 10:53:12;;;;;;;26.02;22.42;;;20.50;77.10;;;;;;4975067;28;20034;-79
2021/09/18 10:56:01;;;;;;;24.83;21.92;;;20.60;77.10;;;;;;4988846;28;20037;-79
2021/09/18 10:58:27;;;;;;;29.58;23.08;;;20.70;77.10;;;;;;4981808;28;20031;-79
2021/09/18 11:00:56;;;;;;;24.38;21.75;;;20.70;76.90;;;;;;4969454;28;20474;-79
2021/09/18 11:03:46;;;;;;;23.77;20.27;;;20.80;76.90;;;;;;4969310;28;20073;-78
2021/09/18 11:06:38;;;;;;;26.48;20.13;;;20.80;76.80;;;;;;4968765;28;20026;-78
2021/09/18 11:09:05;;;;;;;25.67;22.90;;;20.90;76.80;;;;;;4964633;28;20035;-80
2021/09/18 11:11:31;;;;;;;24.17;20.73;;;20.90;76.60;;;;;;4952660;28;20811;-79
2021/09/18 11:14:00;;;;;;;26.15;20.25;;;21.00;76.60;;;;;;4970497;28;20041;-79
2021/09/18 11:16:27;;;;;;;26.10;20.65;;;21.10;76.60;;;;;;4969436;28;20418;-79
2021/09/18 11:19:02;;;;;;;24.20;20.65;;;21.10;76.50;;;;;;4985714;28;20038;-79
2021/09/18 11:21:37;;;;;;;21.75;19.45;;;21.20;76.40;;;;;;4989508;28;20038;-79
2021/09/18 11:24:03;;;;;;;24.75;20.50;;;21.30;76.30;;;;;;4987543;28;20054;-79
2021/09/18 11:26:40;;;;;;;21.70;18.55;;;21.30;76.20;;;;;;4986986;28;20062;-79
2021/09/18 11:29:09;;;;;;;22.02;19.73;;;21.40;76.40;;;;;;4991206;28;20033;-80
2021/09/18 11:31:37;;;;;;;22.33;18.95;;;21.50;76.30;;;;;;4985102;28;20082;-80
2021/09/18 11:34:04;;;;;;;18.98;16.95;;;21.60;76.20;;;;;;4985077;28;20531;-80
2021/09/18 11:36:41;;;;;;;19.90;17.75;;;21.80;76.30;;;;;;4968409;28;20043;-79
2021/09/18 11:39:07;;;;;;;18.50;16.60;;;21.90;76.20;;;;;;4975776;28;20066;-79
2021/09/18 11:41:33;;;;;;;21.02;18.00;;;21.90;76.00;;;;;;4989533;28;20060;-80
2021/09/18 11:44:10;;;;;;;20.13;18.17;;;22.10;76.10;;;;;;4993166;28;20564;-79
2021/09/18 11:46:37;;;;;;;20.63;16.75;;;22.20;76.00;;;;;;4977999;28;20038;-79
2021/09/18 11:49:06;;;;;;;17.60;15.73;;;22.40;76.10;;;;;;4971624;28;20402;-78
2021/09/18 11:51:34;;;;;;;18.58;16.73;;;22.50;75.80;;;;;;4985602;28;20057;-79
2021/09/18 11:54:05;;;;;;;16.45;14.77;;;22.70;75.70;;;;;;4982434;28;20194;-79
2021/09/18 11:56:32;;;;;;;17.60;14.50;;;22.90;75.70;;;;;;4999816;28;20121;-79
2021/09/18 11:59:11;;;;;;;15.27;13.73;;;23.00;75.50;;;;;;4978374;28;20057;-79
2021/09/18 12:01:39;;;;;;;15.98;14.27;;;23.20;75.20;;;;;;4972286;28;20069;-79
2021/09/18 12:04:05;;;;;;;15.88;14.35;;;23.40;75.20;;;;;;4969368;28;20038;-79
2021/09/18 12:06:31;;;;;;;17.60;14.75;;;23.50;74.90;;;;;;4975968;28;20474;-79
2021/09/18 12:08:57;;;;;;;16.27;14.60;;;23.60;74.60;;;;;;4961156;28;20062;-80
2021/09/18 12:11:24;;;;;;;17.35;14.23;;;23.70;74.40;;;;;;4971447;28;20039;-81
2021/09/18 12:13:55;;;;;;;17.10;15.50;;;23.80;74.30;;;;;;4981594;28;20483;-80
2021/09/18 12:16:24;;;;;;;15.77;14.13;;;23.80;73.80;;;;;;4976875;28;20059;-81
2021/09/18 12:18:55;;;;;;;14.07;12.65;;;23.90;73.60;;;;;;4980491;28;20026;-82
2021/09/18 12:21:30;;;;;;;14.23;12.82;;;23.90;73.30;;;;;;4979806;28;20070;-81
2021/09/18 12:24:03;;;;;;;14.10;12.68;;;23.90;73.00;;;;;;4983391;28;20524;-80
2021/09/18 12:26:30;;;;;;;;;;;23.90;73.10;;;;;;5002614;28;20199;-80
2021/09/18 12:29:08;;;;;;;20.25;13.88;;;23.90;73.30;;;;;;5004309;28;19969;-81
2021/09/18 12:31:35;;;;;;;13.90;12.57;;;23.80;72.80;;;;;;4997265;28;20101;-81
2021/09/18 12:34:13;;;;;;;13.25;11.95;;;23.80;73.00;;;;;;5018538;28;20094;-82
2021/09/18 12:36:41;;;;;;;13.10;11.77;;;23.70;72.50;;;;;;4992145;28;20053;-81
2021/09/18 12:39:08;;;;;;;10.68;9.57;;;23.60;72.40;;;;;;5001488;28;20022;-81
2021/09/18 12:41:40;;;;;;;10.52;9.52;;;23.50;72.30;;;;;;5003680;28;20015;-81
2021/09/18 12:44:12;;;;;;;12.07;10.45;;;23.50;72.50;;;;;;5016390;28;20030;-81
2021/09/18 12:46:48;;;;;;;11.45;10.43;;;23.30;72.30;;;;;;4999746;28;20058;-81
2021/09/18 12:49:15;;;;;;;12.40;10.48;;;23.20;72.30;;;;;;5002005;28;20044;-80